SKW3995 KDTW-KMKE
Flight info
| Callsign | SKW3995 |
|---|---|
| Flight time | 0h 50m |
| Altitude | 22000 |
| Route | MIGGY3 GETCH LYSTR SUDDS |
| Aircraft | CRJ9/M-SDFGIRWY/S |
Departure
| Time | 2026-05-08 23:28 |
|---|---|
| Airport | Detroit Metropolitan Wayne County Airport (KDTW) |
Arrival
| Time | 2026-05-09 00:18 |
|---|---|
| Airport | General Mitchell International Airport (KMKE) |
| Time | Latitude | Longitude | Altitude | Speed | Heading |
|---|---|---|---|---|---|
| 2026-05-08 23:06 | 42.21182 | -83.35474 | 644 ft | 0 kts | 297° |
| 2026-05-08 23:15 | 42.21174 | -83.35454 | 647 ft | 3 kts | 299° |
| 2026-05-08 23:16 | 42.21168 | -83.35426 | 644 ft | 4 kts | 261° |
| 2026-05-08 23:16 | 42.21168 | -83.35424 | 644 ft | 0 kts | 261° |
| 2026-05-08 23:16 | 42.21167 | -83.35417 | 646 ft | 2 kts | 312° |
| 2026-05-08 23:17 | 42.21162 | -83.35413 | 645 ft | 0 kts | 8° |
| 2026-05-08 23:18 | 42.21165 | -83.35412 | 645 ft | 1 kts | 16° |
| 2026-05-08 23:19 | 42.21174 | -83.35407 | 644 ft | 2 kts | 26° |
| 2026-05-08 23:19 | 42.21191 | -83.35395 | 644 ft | 3 kts | 29° |
| 2026-05-08 23:19 | 42.21217 | -83.35377 | 645 ft | 5 kts | 27° |
| 2026-05-08 23:19 | 42.21249 | -83.35353 | 644 ft | 6 kts | 28° |
| 2026-05-08 23:20 | 42.21288 | -83.35326 | 646 ft | 7 kts | 26° |
| 2026-05-08 23:20 | 42.21332 | -83.35296 | 645 ft | 8 kts | 26° |
| 2026-05-08 23:20 | 42.21382 | -83.35264 | 644 ft | 8 kts | 25° |
| 2026-05-08 23:20 | 42.21439 | -83.35228 | 644 ft | 9 kts | 24° |
| 2026-05-08 23:21 | 42.21504 | -83.35212 | 644 ft | 10 kts | 359° |
| 2026-05-08 23:21 | 42.21549 | -83.35262 | 644 ft | 9 kts | 277° |
| 2026-05-08 23:21 | 42.21548 | -83.35350 | 644 ft | 10 kts | 269° |
| 2026-05-08 23:21 | 42.21548 | -83.35449 | 644 ft | 11 kts | 269° |
| 2026-05-08 23:22 | 42.21546 | -83.35558 | 644 ft | 12 kts | 268° |
| 2026-05-08 23:22 | 42.21544 | -83.35672 | 644 ft | 13 kts | 268° |
| 2026-05-08 23:22 | 42.21541 | -83.35793 | 644 ft | 13 kts | 269° |
| 2026-05-08 23:22 | 42.21543 | -83.35919 | 644 ft | 13 kts | 287° |
| 2026-05-08 23:23 | 42.21619 | -83.35939 | 643 ft | 13 kts | 27° |
| 2026-05-08 23:23 | 42.21703 | -83.35877 | 642 ft | 14 kts | 29° |
| 2026-05-08 23:23 | 42.21791 | -83.35811 | 642 ft | 15 kts | 28° |
| 2026-05-08 23:23 | 42.21883 | -83.35743 | 643 ft | 15 kts | 29° |
| 2026-05-08 23:24 | 42.21974 | -83.35676 | 644 ft | 16 kts | 28° |
| 2026-05-08 23:24 | 42.22070 | -83.35606 | 644 ft | 16 kts | 28° |
| 2026-05-08 23:24 | 42.22164 | -83.35536 | 645 ft | 16 kts | 29° |
| 2026-05-08 23:24 | 42.22258 | -83.35466 | 645 ft | 16 kts | 29° |
| 2026-05-08 23:25 | 42.22355 | -83.35394 | 645 ft | 16 kts | 29° |
| 2026-05-08 23:25 | 42.22455 | -83.35322 | 646 ft | 16 kts | 27° |
| 2026-05-08 23:25 | 42.22558 | -83.35247 | 645 ft | 17 kts | 29° |
| 2026-05-08 23:25 | 42.22664 | -83.35168 | 645 ft | 18 kts | 28° |
| 2026-05-08 23:26 | 42.22774 | -83.35088 | 645 ft | 18 kts | 28° |
| 2026-05-08 23:26 | 42.22884 | -83.35005 | 646 ft | 18 kts | 29° |
| 2026-05-08 23:26 | 42.22990 | -83.34928 | 645 ft | 15 kts | 28° |
| 2026-05-08 23:26 | 42.23079 | -83.34938 | 646 ft | 14 kts | 305° |
| 2026-05-08 23:27 | 42.23053 | -83.35051 | 645 ft | 14 kts | 213° |
| 2026-05-08 23:27 | 42.22895 | -83.35168 | 644 ft | 51 kts | 208° |
| 2026-05-08 23:27 | 42.22385 | -83.35545 | 646 ft | 114 kts | 208° |
| 2026-05-08 23:27 | 42.21537 | -83.36171 | 668 ft | 159 kts | 206° |
| 2026-05-08 23:28 | 42.20567 | -83.36897 | 1310 ft | 155 kts | 209° |
| 2026-05-08 23:28 | 42.19648 | -83.37555 | 2114 ft | 148 kts | 212° |
| 2026-05-08 23:28 | 42.18687 | -83.38200 | 2585 ft | 161 kts | 210° |
| 2026-05-08 23:28 | 42.17650 | -83.38754 | 3247 ft | 158 kts | 205° |
| 2026-05-08 23:29 | 42.16847 | -83.39642 | 3834 ft | 147 kts | 248° |
| 2026-05-08 23:29 | 42.16426 | -83.40890 | 4421 ft | 151 kts | 250° |
| 2026-05-08 23:29 | 42.16019 | -83.42293 | 4819 ft | 172 kts | 253° |
| 2026-05-08 23:29 | 42.15627 | -83.43940 | 5214 ft | 197 kts | 256° |
| 2026-05-08 23:30 | 42.15210 | -83.45816 | 5671 ft | 221 kts | 255° |
| 2026-05-08 23:30 | 42.14725 | -83.47897 | 6125 ft | 244 kts | 253° |
| 2026-05-08 23:30 | 42.14155 | -83.50108 | 6895 ft | 248 kts | 252° |
| 2026-05-08 23:30 | 42.13582 | -83.52316 | 7818 ft | 250 kts | 255° |
| 2026-05-08 23:31 | 42.13545 | -83.54616 | 8685 ft | 250 kts | 287° |
| 2026-05-08 23:31 | 42.14277 | -83.56760 | 9606 ft | 254 kts | 298° |
| 2026-05-08 23:31 | 42.15270 | -83.58768 | 10342 ft | 262 kts | 303° |
| 2026-05-08 23:31 | 42.16406 | -83.60744 | 11001 ft | 271 kts | 305° |
| 2026-05-08 23:32 | 42.17610 | -83.62751 | 11662 ft | 279 kts | 305° |
| 2026-05-08 23:32 | 42.18843 | -83.64812 | 12334 ft | 286 kts | 304° |
| 2026-05-08 23:32 | 42.20076 | -83.66952 | 13022 ft | 292 kts | 303° |
| 2026-05-08 23:32 | 42.21383 | -83.69103 | 13640 ft | 304 kts | 314° |
| 2026-05-08 23:33 | 42.23256 | -83.70473 | 14335 ft | 317 kts | 332° |
| 2026-05-08 23:33 | 42.25358 | -83.71468 | 15007 ft | 324 kts | 338° |
| 2026-05-08 23:33 | 42.27581 | -83.72119 | 15727 ft | 330 kts | 343° |
| 2026-05-08 23:33 | 42.29879 | -83.72583 | 16393 ft | 335 kts | 345° |
| 2026-05-08 23:34 | 42.32201 | -83.73011 | 17056 ft | 338 kts | 345° |
| 2026-05-08 23:34 | 42.34536 | -83.73479 | 17722 ft | 341 kts | 344° |
| 2026-05-08 23:34 | 42.36885 | -83.74007 | 18342 ft | 343 kts | 343° |
| 2026-05-08 23:34 | 42.39243 | -83.74559 | 18912 ft | 345 kts | 343° |
| 2026-05-08 23:35 | 42.41620 | -83.75111 | 19464 ft | 348 kts | 343° |
| 2026-05-08 23:35 | 42.44010 | -83.75661 | 20008 ft | 350 kts | 343° |
| 2026-05-08 23:35 | 42.46420 | -83.76217 | 20538 ft | 352 kts | 342° |
| 2026-05-08 23:35 | 42.48843 | -83.76776 | 21056 ft | 355 kts | 342° |
| 2026-05-08 23:36 | 42.51293 | -83.77343 | 21484 ft | 360 kts | 342° |
| 2026-05-08 23:36 | 42.53795 | -83.77917 | 21682 ft | 369 kts | 343° |
| 2026-05-08 23:36 | 42.56315 | -83.78498 | 21762 ft | 374 kts | 343° |
| 2026-05-08 23:36 | 42.58923 | -83.79155 | 21796 ft | 379 kts | 341° |
| 2026-05-08 23:37 | 42.61477 | -83.79923 | 21804 ft | 383 kts | 340° |
| 2026-05-08 23:37 | 42.64077 | -83.80794 | 21812 ft | 388 kts | 339° |
| 2026-05-08 23:37 | 42.66717 | -83.81662 | 21816 ft | 392 kts | 340° |
| 2026-05-08 23:37 | 42.69378 | -83.82526 | 21814 ft | 394 kts | 340° |
| 2026-05-08 23:38 | 42.72050 | -83.83390 | 21811 ft | 396 kts | 340° |
| 2026-05-08 23:38 | 42.74732 | -83.84255 | 21812 ft | 397 kts | 340° |
| 2026-05-08 23:38 | 42.77360 | -83.85310 | 21796 ft | 388 kts | 328° |
| 2026-05-08 23:38 | 42.79602 | -83.87267 | 21813 ft | 381 kts | 319° |
| 2026-05-08 23:39 | 42.81649 | -83.89539 | 21819 ft | 378 kts | 313° |
| 2026-05-08 23:39 | 42.83532 | -83.92031 | 21821 ft | 377 kts | 310° |
| 2026-05-08 23:39 | 42.85371 | -83.94587 | 21820 ft | 378 kts | 310° |
| 2026-05-08 23:39 | 42.87216 | -83.97143 | 21813 ft | 378 kts | 310° |
| 2026-05-08 23:40 | 42.89078 | -83.99686 | 21804 ft | 379 kts | 311° |
| 2026-05-08 23:40 | 42.90964 | -84.02203 | 21803 ft | 380 kts | 311° |
| 2026-05-08 23:40 | 42.92859 | -84.04715 | 21804 ft | 379 kts | 311° |
| 2026-05-08 23:40 | 42.94749 | -84.07229 | 21803 ft | 379 kts | 311° |
| 2026-05-08 23:41 | 42.96635 | -84.09742 | 21797 ft | 378 kts | 311° |
| 2026-05-08 23:41 | 42.98516 | -84.12246 | 21801 ft | 376 kts | 311° |
| 2026-05-08 23:41 | 43.00360 | -84.14704 | 21801 ft | 374 kts | 311° |
| 2026-05-08 23:41 | 43.02243 | -84.17204 | 21802 ft | 371 kts | 311° |
| 2026-05-08 23:42 | 43.04086 | -84.19660 | 21796 ft | 369 kts | 311° |
| 2026-05-08 23:42 | 43.05916 | -84.22110 | 21797 ft | 367 kts | 311° |
| 2026-05-08 23:42 | 43.07713 | -84.24519 | 21798 ft | 366 kts | 311° |
| 2026-05-08 23:42 | 43.09528 | -84.26952 | 21801 ft | 364 kts | 311° |
| 2026-05-08 23:43 | 43.11337 | -84.29371 | 21795 ft | 362 kts | 311° |
| 2026-05-08 23:43 | 43.13135 | -84.31780 | 21802 ft | 361 kts | 311° |
| 2026-05-08 23:43 | 43.14925 | -84.34182 | 21805 ft | 360 kts | 311° |
| 2026-05-08 23:43 | 43.16711 | -84.36581 | 21812 ft | 359 kts | 311° |
| 2026-05-08 23:44 | 43.18492 | -84.38974 | 21805 ft | 358 kts | 311° |
| 2026-05-08 23:44 | 43.20267 | -84.41362 | 21806 ft | 358 kts | 311° |
| 2026-05-08 23:44 | 43.21990 | -84.43818 | 21794 ft | 355 kts | 303° |
| 2026-05-08 23:44 | 43.22980 | -84.46849 | 21811 ft | 349 kts | 283° |
| 2026-05-08 23:45 | 43.23506 | -84.50070 | 21815 ft | 350 kts | 281° |
| 2026-05-08 23:45 | 43.23787 | -84.52294 | 21810 ft | 351 kts | 277° |
| 2026-05-08 23:45 | 43.23809 | -84.56739 | 21814 ft | 354 kts | 268° |
| 2026-05-08 23:45 | 43.23609 | -84.60112 | 21810 ft | 355 kts | 267° |
| 2026-05-08 23:46 | 43.23393 | -84.63501 | 21803 ft | 356 kts | 267° |
| 2026-05-08 23:46 | 43.23259 | -84.65790 | 21803 ft | 357 kts | 268° |
| 2026-05-08 23:46 | 43.23104 | -84.69192 | 21804 ft | 358 kts | 269° |
| 2026-05-08 23:46 | 43.22969 | -84.72598 | 21805 ft | 359 kts | 268° |
| 2026-05-08 23:47 | 43.22831 | -84.76016 | 21800 ft | 359 kts | 268° |
| 2026-05-08 23:47 | 43.22691 | -84.79445 | 21800 ft | 360 kts | 268° |
| 2026-05-08 23:47 | 43.22551 | -84.82825 | 21806 ft | 360 kts | 268° |
| 2026-05-08 23:47 | 43.22406 | -84.86263 | 21804 ft | 361 kts | 269° |
| 2026-05-08 23:48 | 43.22262 | -84.89704 | 21803 ft | 362 kts | 268° |
| 2026-05-08 23:48 | 43.22117 | -84.93150 | 21805 ft | 362 kts | 268° |
| 2026-05-08 23:48 | 43.21972 | -84.96600 | 21809 ft | 362 kts | 268° |
| 2026-05-08 23:48 | 43.21822 | -85.00052 | 21813 ft | 363 kts | 268° |
| 2026-05-08 23:49 | 43.21675 | -85.03505 | 21808 ft | 363 kts | 268° |
| 2026-05-08 23:49 | 43.21523 | -85.06959 | 21810 ft | 363 kts | 268° |
| 2026-05-08 23:49 | 43.21371 | -85.10430 | 21813 ft | 364 kts | 268° |
| 2026-05-08 23:49 | 43.21218 | -85.13892 | 21819 ft | 364 kts | 268° |
| 2026-05-08 23:50 | 43.21103 | -85.17346 | 21814 ft | 363 kts | 270° |
| 2026-05-08 23:50 | 43.21030 | -85.20801 | 21820 ft | 361 kts | 270° |
| 2026-05-08 23:50 | 43.20947 | -85.24237 | 21825 ft | 360 kts | 270° |
| 2026-05-08 23:50 | 43.20859 | -85.27659 | 21820 ft | 359 kts | 270° |
| 2026-05-08 23:51 | 43.20772 | -85.31074 | 21817 ft | 358 kts | 270° |
| 2026-05-08 23:51 | 43.20687 | -85.34472 | 21819 ft | 357 kts | 270° |
| 2026-05-08 23:51 | 43.20597 | -85.37869 | 21816 ft | 356 kts | 269° |
| 2026-05-08 23:51 | 43.20508 | -85.41249 | 21821 ft | 355 kts | 269° |
| 2026-05-08 23:52 | 43.20420 | -85.44631 | 21818 ft | 354 kts | 269° |
| 2026-05-08 23:52 | 43.20329 | -85.48002 | 21820 ft | 353 kts | 269° |
| 2026-05-08 23:52 | 43.20240 | -85.51321 | 21824 ft | 353 kts | 269° |
| 2026-05-08 23:52 | 43.20147 | -85.54683 | 21825 ft | 352 kts | 269° |
| 2026-05-08 23:53 | 43.20054 | -85.58037 | 21820 ft | 352 kts | 269° |
| 2026-05-08 23:53 | 43.19962 | -85.61392 | 21822 ft | 352 kts | 269° |
| 2026-05-08 23:53 | 43.19867 | -85.64740 | 21824 ft | 352 kts | 269° |
| 2026-05-08 23:53 | 43.19770 | -85.68092 | 21817 ft | 351 kts | 269° |
| 2026-05-08 23:54 | 43.19677 | -85.71445 | 21814 ft | 351 kts | 269° |
| 2026-05-08 23:54 | 43.19578 | -85.74801 | 21819 ft | 351 kts | 269° |
| 2026-05-08 23:54 | 43.19477 | -85.78144 | 21821 ft | 351 kts | 269° |
| 2026-05-08 23:55 | 43.19277 | -85.84843 | 21813 ft | 351 kts | 269° |
| 2026-05-08 23:55 | 43.19175 | -85.88190 | 21825 ft | 351 kts | 269° |
| 2026-05-08 23:55 | 43.19072 | -85.91538 | 21824 ft | 351 kts | 269° |
| 2026-05-08 23:55 | 43.18973 | -85.94836 | 21827 ft | 351 kts | 269° |
| 2026-05-08 23:56 | 43.18868 | -85.98226 | 21826 ft | 351 kts | 269° |
| 2026-05-08 23:56 | 43.18762 | -86.01529 | 21829 ft | 352 kts | 269° |
| 2026-05-08 23:56 | 43.18657 | -86.04884 | 21828 ft | 352 kts | 269° |
| 2026-05-08 23:56 | 43.18548 | -86.08233 | 21827 ft | 352 kts | 269° |
| 2026-05-08 23:57 | 43.18440 | -86.11576 | 21826 ft | 352 kts | 269° |
| 2026-05-08 23:57 | 43.18332 | -86.14927 | 21832 ft | 352 kts | 269° |
| 2026-05-08 23:57 | 43.18222 | -86.18272 | 21824 ft | 352 kts | 269° |
| 2026-05-08 23:57 | 43.18111 | -86.21623 | 21830 ft | 352 kts | 269° |
| 2026-05-08 23:58 | 43.17998 | -86.24917 | 21507 ft | 338 kts | 269° |
| 2026-05-08 23:58 | 43.17894 | -86.28098 | 21130 ft | 332 kts | 269° |
| 2026-05-08 23:58 | 43.17787 | -86.31232 | 20758 ft | 328 kts | 269° |
| 2026-05-08 23:58 | 43.17679 | -86.34357 | 20391 ft | 328 kts | 269° |
| 2026-05-08 23:59 | 43.17570 | -86.37475 | 20028 ft | 328 kts | 269° |
| 2026-05-08 23:59 | 43.17461 | -86.40573 | 19677 ft | 324 kts | 269° |
| 2026-05-08 23:59 | 43.17356 | -86.43603 | 19332 ft | 320 kts | 269° |
| 2026-05-08 23:59 | 43.17248 | -86.46632 | 18985 ft | 317 kts | 269° |
| 2026-05-09 00:00 | 43.17142 | -86.49643 | 18655 ft | 317 kts | 269° |
| 2026-05-09 00:00 | 43.17033 | -86.52669 | 18340 ft | 318 kts | 269° |
| 2026-05-09 00:00 | 43.16922 | -86.55702 | 18027 ft | 319 kts | 269° |
| 2026-05-09 00:00 | 43.16811 | -86.58742 | 17673 ft | 320 kts | 269° |
| 2026-05-09 00:01 | 43.16699 | -86.61793 | 17328 ft | 321 kts | 269° |
| 2026-05-09 00:01 | 43.16585 | -86.64845 | 17015 ft | 321 kts | 269° |
| 2026-05-09 00:01 | 43.16472 | -86.67877 | 16706 ft | 315 kts | 269° |
| 2026-05-09 00:01 | 43.16362 | -86.70857 | 16378 ft | 309 kts | 269° |
| 2026-05-09 00:02 | 43.16250 | -86.73771 | 16053 ft | 304 kts | 269° |
| 2026-05-09 00:02 | 43.16140 | -86.76648 | 15741 ft | 303 kts | 269° |
| 2026-05-09 00:02 | 43.16033 | -86.79504 | 15456 ft | 305 kts | 270° |
| 2026-05-09 00:02 | 43.15921 | -86.82410 | 15185 ft | 306 kts | 270° |
| 2026-05-09 00:03 | 43.15806 | -86.85328 | 14905 ft | 307 kts | 270° |
| 2026-05-09 00:03 | 43.15694 | -86.88253 | 14633 ft | 308 kts | 270° |
| 2026-05-09 00:03 | 43.15578 | -86.91184 | 14374 ft | 309 kts | 270° |
| 2026-05-09 00:03 | 43.15462 | -86.94123 | 14106 ft | 309 kts | 270° |
| 2026-05-09 00:04 | 43.15344 | -86.97046 | 13840 ft | 305 kts | 270° |
| 2026-05-09 00:04 | 43.15225 | -86.99929 | 13569 ft | 301 kts | 270° |
| 2026-05-09 00:04 | 43.15124 | -87.02766 | 13266 ft | 296 kts | 271° |
| 2026-05-09 00:04 | 43.15055 | -87.05569 | 12966 ft | 293 kts | 271° |
| 2026-05-09 00:05 | 43.14993 | -87.08338 | 12670 ft | 289 kts | 271° |
| 2026-05-09 00:05 | 43.14931 | -87.11077 | 12376 ft | 287 kts | 271° |
| 2026-05-09 00:05 | 43.14869 | -87.13794 | 12082 ft | 284 kts | 271° |
| 2026-05-09 00:05 | 43.14809 | -87.16449 | 11797 ft | 281 kts | 270° |
| 2026-05-09 00:06 | 43.14747 | -87.19116 | 11509 ft | 279 kts | 270° |
| 2026-05-09 00:06 | 43.14685 | -87.21764 | 11249 ft | 276 kts | 270° |
| 2026-05-09 00:06 | 43.14623 | -87.24386 | 11117 ft | 276 kts | 270° |
| 2026-05-09 00:06 | 43.14558 | -87.27003 | 11067 ft | 274 kts | 270° |
| 2026-05-09 00:07 | 43.14492 | -87.29597 | 11042 ft | 271 kts | 270° |
| 2026-05-09 00:07 | 43.14431 | -87.32159 | 11028 ft | 267 kts | 270° |
| 2026-05-09 00:07 | 43.14366 | -87.34679 | 10862 ft | 262 kts | 269° |
| 2026-05-09 00:07 | 43.14345 | -87.37156 | 10596 ft | 257 kts | 273° |
| 2026-05-09 00:08 | 43.14438 | -87.39592 | 10290 ft | 255 kts | 274° |
| 2026-05-09 00:08 | 43.14571 | -87.42004 | 9987 ft | 253 kts | 275° |
| 2026-05-09 00:08 | 43.14727 | -87.44399 | 9686 ft | 252 kts | 275° |
| 2026-05-09 00:08 | 43.14898 | -87.46761 | 9268 ft | 253 kts | 275° |
| 2026-05-09 00:09 | 43.15077 | -87.49168 | 8846 ft | 254 kts | 275° |
| 2026-05-09 00:09 | 43.15267 | -87.51601 | 8416 ft | 254 kts | 275° |
| 2026-05-09 00:09 | 43.15456 | -87.53973 | 7998 ft | 254 kts | 276° |
| 2026-05-09 00:09 | 43.15651 | -87.56379 | 7532 ft | 255 kts | 276° |
| 2026-05-09 00:10 | 43.15846 | -87.58794 | 7071 ft | 255 kts | 276° |
| 2026-05-09 00:10 | 43.16045 | -87.61205 | 6628 ft | 254 kts | 276° |
| 2026-05-09 00:10 | 43.16245 | -87.63610 | 6177 ft | 252 kts | 276° |
| 2026-05-09 00:10 | 43.16447 | -87.65975 | 5691 ft | 249 kts | 275° |
| 2026-05-09 00:11 | 43.16653 | -87.68311 | 5201 ft | 246 kts | 276° |
| 2026-05-09 00:11 | 43.16860 | -87.70634 | 4696 ft | 243 kts | 276° |
| 2026-05-09 00:11 | 43.17066 | -87.72931 | 4227 ft | 243 kts | 276° |
| 2026-05-09 00:11 | 43.17281 | -87.75227 | 3794 ft | 242 kts | 276° |
| 2026-05-09 00:12 | 43.17504 | -87.77497 | 3438 ft | 239 kts | 276° |
| 2026-05-09 00:12 | 43.17577 | -87.79729 | 3166 ft | 230 kts | 256° |
| 2026-05-09 00:12 | 43.16737 | -87.81506 | 3097 ft | 222 kts | 220° |
| 2026-05-09 00:12 | 43.15535 | -87.82761 | 3075 ft | 212 kts | 218° |
| 2026-05-09 00:13 | 43.14380 | -87.83908 | 3097 ft | 203 kts | 216° |
| 2026-05-09 00:13 | 43.13212 | -87.85036 | 3080 ft | 211 kts | 216° |
| 2026-05-09 00:13 | 43.11980 | -87.86191 | 3070 ft | 221 kts | 216° |
| 2026-05-09 00:13 | 43.10654 | -87.87102 | 3022 ft | 213 kts | 194° |
| 2026-05-09 00:14 | 43.09198 | -87.87236 | 3017 ft | 207 kts | 185° |
| 2026-05-09 00:14 | 43.07811 | -87.87309 | 2990 ft | 189 kts | 186° |
| 2026-05-09 00:14 | 43.06601 | -87.87432 | 2948 ft | 161 kts | 188° |
| 2026-05-09 00:14 | 43.05508 | -87.87599 | 2554 ft | 145 kts | 191° |
| 2026-05-09 00:15 | 43.04588 | -87.87757 | 2478 ft | 129 kts | 191° |
| 2026-05-09 00:15 | 43.03714 | -87.87916 | 2333 ft | 126 kts | 191° |
| 2026-05-09 00:15 | 43.02832 | -87.88083 | 2178 ft | 131 kts | 190° |
| 2026-05-09 00:15 | 43.01905 | -87.88264 | 1962 ft | 136 kts | 188° |
| 2026-05-09 00:16 | 43.00988 | -87.88431 | 1777 ft | 129 kts | 187° |
| 2026-05-09 00:16 | 43.00106 | -87.88571 | 1602 ft | 126 kts | 186° |
| 2026-05-09 00:16 | 42.99246 | -87.88714 | 1439 ft | 125 kts | 186° |
| 2026-05-09 00:16 | 42.98382 | -87.88858 | 1261 ft | 125 kts | 183° |
| 2026-05-09 00:17 | 42.97512 | -87.88995 | 1102 ft | 127 kts | 184° |
| 2026-05-09 00:17 | 42.96621 | -87.89155 | 957 ft | 130 kts | 182° |
| 2026-05-09 00:17 | 42.95737 | -87.89309 | 777 ft | 125 kts | 184° |
| 2026-05-09 00:17 | 42.94903 | -87.89448 | 687 ft | 107 kts | 185° |
| 2026-05-09 00:18 | 42.94304 | -87.89550 | 686 ft | 69 kts | 188° |
| 2026-05-09 00:18 | 42.93922 | -87.89620 | 686 ft | 43 kts | 187° |
| 2026-05-09 00:18 | 42.93660 | -87.89664 | 686 ft | 28 kts | 187° |
| 2026-05-09 00:18 | 42.93549 | -87.89766 | 684 ft | 18 kts | 269° |
| 2026-05-09 00:19 | 42.93611 | -87.89892 | 681 ft | 16 kts | 355° |
| 2026-05-09 00:19 | 42.93726 | -87.89888 | 686 ft | 17 kts | 0° |
| 2026-05-09 00:19 | 42.93845 | -87.89887 | 686 ft | 18 kts | 0° |
| 2026-05-09 00:19 | 42.93971 | -87.89886 | 686 ft | 19 kts | 0° |
| 2026-05-09 00:20 | 42.94103 | -87.89884 | 686 ft | 19 kts | 1° |
| 2026-05-09 00:20 | 42.94238 | -87.89910 | 686 ft | 20 kts | 350° |
| 2026-05-09 00:20 | 42.94378 | -87.89943 | 683 ft | 21 kts | 350° |
| 2026-05-09 00:20 | 42.94497 | -87.89965 | 686 ft | 15 kts | 10° |
| 2026-05-09 00:21 | 42.94560 | -87.89860 | 683 ft | 15 kts | 60° |
| 2026-05-09 00:21 | 42.94627 | -87.89750 | 685 ft | 15 kts | 20° |
| 2026-05-09 00:21 | 42.94737 | -87.89729 | 686 ft | 16 kts | 7° |
| 2026-05-09 00:21 | 42.94839 | -87.89712 | 686 ft | 10 kts | 7° |
| 2026-05-09 00:22 | 42.94883 | -87.89718 | 686 ft | 1 kts | 316° |
| 2026-05-09 00:22 | 42.94886 | -87.89733 | 686 ft | 4 kts | 265° |
| 2026-05-09 00:22 | 42.94877 | -87.89775 | 686 ft | 5 kts | 253° |
| 2026-05-09 00:22 | 42.94870 | -87.89808 | 686 ft | 0 kts | 255° |